Dexter, Mississippi
Current Conditions -  °F | °C
As of 3:53 AM on Thursday 27 Nov 2014 (Local Time) from KMCB Reporting Station
Clear Clear  
Wind Chill: 41°   Ceiling: Unl
Heat Index: 45°   Visibility: 10mi
Dew Point: 34°   Wind: 7mph
Humidity: 65%   Direction: 310°NW
Pressure: 30.32"   Gusts: NA
Location:  31.1485°N, 90.1061°W
Report Text: KMCB 270953Z AUTO 31006KT 10SM CLR 07/01 A3032 RMK AO2 SLP265 T00720011
Loading
Personal Weather Stations






























Interactive Weather Map New forecast layout! Learn more

10-Day Weather Forecast

Advertisements
Track Severe Weather on mobile